Time;durP1;ratioP1;P1;durP2;ratioP2;P2;SDS_P1;SDS_P2;PMS_P1;PMS_P2;Temp;Humidity;BMP_temperature;BMP_pressure;BME280_temperature;BME280_humidity;BME280_pressure;Samples;Min_cycle;Max_cycle;Signal;HPM_P1;HPM_P2
2021/03/15 00:03:25;;;;;;;4.97;2.60;;;;;;;;;;10577402;27;20238;-72
2021/03/15 00:08:34;;;;;;;6.27;3.13;;;;;;;;;;10576214;27;20249;-73
2021/03/15 00:13:35;;;;;;;6.80;3.10;;;;;;;;;;10578339;27;20218;-73
2021/03/15 00:18:37;;;;;;;4.93;2.23;;;;;;;;;;10567324;27;20199;-71
2021/03/15 00:23:39;;;;;;;6.03;2.80;;;;;;;;;;10576076;27;20298;-71
2021/03/15 00:28:41;;;;;;;5.50;2.90;;;;;;;;;;10575166;27;20202;-72
2021/03/15 00:33:43;;;;;;;5.87;2.97;;;;;;;;;;10562200;27;20214;-72
2021/03/15 00:38:53;;;;;;;5.53;2.80;;;;;;;;;;10582888;27;20197;-72
2021/03/15 00:43:55;;;;;;;5.37;1.83;;;;;;;;;;10576426;27;20286;-72
2021/03/15 00:48:57;;;;;;;6.93;3.50;;;;;;;;;;10576904;27;20285;-72
2021/03/15 00:53:59;;;;;;;6.20;2.93;;;;;;;;;;10577994;27;20306;-73
2021/03/15 00:59:01;;;;;;;6.13;2.90;;;;;;;;;;10568248;27;20239;-73
2021/03/15 01:04:12;;;;;;;5.30;2.53;;;;;;;;;;10567500;27;20186;-72
2021/03/15 01:09:16;;;;;;;6.73;3.13;;;;;;;;;;10580402;27;20793;-72
2021/03/15 01:14:17;;;;;;;6.90;3.50;;;;;;;;;;10575652;27;20214;-73
2021/03/15 01:19:19;;;;;;;7.20;3.80;;;;;;;;;;10581013;27;20214;-73
2021/03/15 01:24:21;;;;;;;6.13;3.27;;;;;;;;;;10572953;27;20242;-71
2021/03/15 01:29:23;;;;;;;7.60;3.67;;;;;;;;;;10558548;27;20227;-73
2021/03/15 01:34:25;;;;;;;7.37;3.17;;;;;;;;;;10573022;27;20712;-73
2021/03/15 01:39:38;;;;;;;6.90;3.40;;;;;;;;;;10574442;28;20279;-73
2021/03/15 01:44:40;;;;;;;7.63;3.60;;;;;;;;;;10576158;28;20582;-73
2021/03/15 01:49:42;;;;;;;9.27;4.00;;;;;;;;;;10565498;28;20211;-73
2021/03/15 01:54:46;;;;;;;7.97;3.80;;;;;;;;;;10560390;28;20207;-73
2021/03/15 01:59:47;;;;;;;5.67;2.33;;;;;;;;;;10569540;28;20234;-72
2021/03/15 02:04:49;;;;;;;8.87;4.13;;;;;;;;;;10573704;28;20248;-72
2021/03/15 02:10:02;;;;;;;7.47;3.70;;;;;;;;;;10569432;28;20632;-72
2021/03/15 02:15:08;;;;;;;8.93;4.07;;;;;;;;;;10567825;28;20202;-73
2021/03/15 02:20:27;;;;;;;10.03;4.07;;;;;;;;;;10556983;28;20416;-73
2021/03/15 02:25:45;;;;;;;8.60;4.13;;;;;;;;;;10574849;28;20274;-72
2021/03/15 02:30:52;;;;;;;9.37;4.20;;;;;;;;;;10564521;28;20297;-73
2021/03/15 02:35:55;;;;;;;8.10;3.90;;;;;;;;;;10568994;27;20254;-72
2021/03/15 02:40:58;;;;;;;6.23;2.47;;;;;;;;;;10577892;27;20639;-72
2021/03/15 02:46:00;;;;;;;8.53;4.30;;;;;;;;;;10577556;27;20199;-72
2021/03/15 02:51:04;;;;;;;7.87;3.70;;;;;;;;;;10579038;27;20217;-72
2021/03/15 02:56:07;;;;;;;9.17;4.60;;;;;;;;;;10566455;27;20585;-72
2021/03/15 03:01:09;;;;;;;6.90;3.47;;;;;;;;;;10585625;27;20294;-72
2021/03/15 03:06:11;;;;;;;8.80;3.87;;;;;;;;;;10582024;27;20599;-72
2021/03/15 03:11:13;;;;;;;8.77;3.80;;;;;;;;;;10556809;27;20282;-73
2021/03/15 03:16:15;;;;;;;8.00;4.20;;;;;;;;;;10576099;27;20332;-72
2021/03/15 03:21:20;;;;;;;7.30;3.40;;;;;;;;;;10571498;27;20287;-73
2021/03/15 03:26:23;;;;;;;7.03;3.10;;;;;;;;;;10565770;27;20214;-73
2021/03/15 03:31:26;;;;;;;7.37;2.90;;;;;;;;;;10575470;27;20223;-72
2021/03/15 03:36:28;;;;;;;7.07;3.47;;;;;;;;;;10579570;27;20342;-73
2021/03/15 03:41:30;;;;;;;8.20;2.93;;;;;;;;;;10569138;27;20370;-73
2021/03/15 03:46:40;;;;;;;6.70;3.07;;;;;;;;;;10547176;28;20721;-72
2021/03/15 03:51:46;;;;;;;6.97;2.97;;;;;;;;;;10563041;27;20623;-73
2021/03/15 03:56:54;;;;;;;7.40;3.27;;;;;;;;;;10563928;27;20411;-72
2021/03/15 04:01:57;;;;;;;7.20;2.83;;;;;;;;;;10571171;27;20321;-72
2021/03/15 04:07:00;;;;;;;7.63;3.70;;;;;;;;;;10581411;27;20307;-72
2021/03/15 04:12:04;;;;;;;4.87;2.30;;;;;;;;;;10579917;27;20570;-73
2021/03/15 04:17:07;;;;;;;7.23;2.70;;;;;;;;;;10577133;27;20208;-72
2021/03/15 04:22:10;;;;;;;4.67;2.37;;;;;;;;;;10555675;27;20272;-72
2021/03/15 04:27:13;;;;;;;7.07;3.10;;;;;;;;;;10573304;27;20539;-72
2021/03/15 04:32:15;;;;;;;3.10;1.73;;;;;;;;;;10574711;27;20246;-72
2021/03/15 04:37:18;;;;;;;7.37;3.43;;;;;;;;;;10573433;27;20261;-72
2021/03/15 04:42:21;;;;;;;4.90;2.13;;;;;;;;;;10570831;27;20219;-72
2021/03/15 04:47:23;;;;;;;7.70;3.57;;;;;;;;;;10559533;27;20531;-71
2021/03/15 04:52:26;;;;;;;5.20;1.83;;;;;;;;;;10557041;27;20226;-72
2021/03/15 04:57:28;;;;;;;4.10;1.93;;;;;;;;;;10547244;28;20199;-72
2021/03/15 05:02:30;;;;;;;2.93;1.27;;;;;;;;;;10551435;27;20913;-72
2021/03/15 05:07:34;;;;;;;4.77;2.53;;;;;;;;;;10572196;27;20194;-71
2021/03/15 05:12:35;;;;;;;6.63;2.33;;;;;;;;;;10569097;27;20687;-72
2021/03/15 05:17:37;;;;;;;7.20;3.33;;;;;;;;;;10568205;27;20225;-72
2021/03/15 05:22:42;;;;;;;4.03;2.10;;;;;;;;;;10567435;27;20215;-72
2021/03/15 05:27:45;;;;;;;4.03;2.13;;;;;;;;;;10571495;27;20191;-72
2021/03/15 05:32:48;;;;;;;4.47;2.37;;;;;;;;;;10570791;27;20206;-72
2021/03/15 05:37:50;;;;;;;9.07;3.63;;;;;;;;;;10573320;27;20198;-73
2021/03/15 05:43:01;;;;;;;6.80;2.97;;;;;;;;;;10567274;28;20219;-74
2021/03/15 05:48:31;;;;;;;9.93;3.37;;;;;;;;;;10580478;28;20186;-71
2021/03/15 05:53:53;;;;;;;7.67;3.03;;;;;;;;;;10593553;27;20234;-71
2021/03/15 05:59:06;;;;;;;7.40;3.23;;;;;;;;;;10560166;28;20271;-72
2021/03/15 06:04:26;;;;;;;6.07;2.83;;;;;;;;;;10567264;28;20194;-73
2021/03/15 06:09:29;;;;;;;8.27;3.20;;;;;;;;;;10570727;28;20570;-73
2021/03/15 06:14:35;;;;;;;7.97;2.73;;;;;;;;;;10569410;27;20218;-72
2021/03/15 06:19:36;;;;;;;4.20;2.10;;;;;;;;;;10577528;27;20324;-72
2021/03/15 06:24:38;;;;;;;5.60;2.43;;;;;;;;;;10564903;27;20217;-72
2021/03/15 06:29:41;;;;;;;4.60;1.87;;;;;;;;;;10578729;27;20219;-72
2021/03/15 06:34:43;;;;;;;4.93;2.40;;;;;;;;;;10567206;28;20272;-74
2021/03/15 06:39:46;;;;;;;2.27;1.17;;;;;;;;;;10565143;27;20267;-72
2021/03/15 06:44:49;;;;;;;5.83;2.43;;;;;;;;;;10591747;27;20829;-72
2021/03/15 06:49:50;;;;;;;3.93;2.03;;;;;;;;;;10589737;27;20246;-72
2021/03/15 06:54:59;;;;;;;4.53;1.93;;;;;;;;;;10569047;27;20221;-71
2021/03/15 07:00:02;;;;;;;3.70;1.83;;;;;;;;;;10567589;27;20254;-72
2021/03/15 07:05:08;;;;;;;5.43;2.40;;;;;;;;;;10558594;27;20199;-71
2021/03/15 07:10:16;;;;;;;2.40;1.10;;;;;;;;;;10585300;27;20653;-72
2021/03/15 07:15:19;;;;;;;2.33;1.40;;;;;;;;;;10549934;27;20290;-72
2021/03/15 07:20:41;;;;;;;4.83;1.87;;;;;;;;;;10571509;28;20271;-73
2021/03/15 07:25:47;;;;;;;3.33;1.70;;;;;;;;;;10576841;27;20195;-73
2021/03/15 07:30:50;;;;;;;4.70;2.30;;;;;;;;;;10589033;27;20712;-73
2021/03/15 07:35:51;;;;;;;4.93;2.10;;;;;;;;;;10590201;27;20199;-73
2021/03/15 07:40:53;;;;;;;3.37;1.90;;;;;;;;;;10573685;27;20212;-73
2021/03/15 07:45:55;;;;;;;3.07;1.40;;;;;;;;;;10557873;28;21493;-74
2021/03/15 07:50:58;;;;;;;2.57;1.50;;;;;;;;;;10575205;27;21038;-72
2021/03/15 07:56:00;;;;;;;1.10;0.87;;;;;;;;;;10573730;27;20252;-73
2021/03/15 08:01:03;;;;;;;4.70;1.60;;;;;;;;;;10579350;27;20239;-72
2021/03/15 08:06:06;;;;;;;4.53;1.90;;;;;;;;;;10574760;27;20195;-73
2021/03/15 08:11:09;;;;;;;4.90;1.83;;;;;;;;;;10573218;27;20282;-73
2021/03/15 08:16:13;;;;;;;3.63;1.20;;;;;;;;;;10564926;27;20548;-71
2021/03/15 08:21:18;;;;;;;4.57;1.27;;;;;;;;;;10550886;28;20229;-72
2021/03/15 08:26:20;;;;;;;3.23;1.60;;;;;;;;;;10578070;27;20716;-72
2021/03/15 08:31:23;;;;;;;2.77;1.50;;;;;;;;;;10568261;27;20694;-73
2021/03/15 08:36:26;;;;;;;2.23;1.23;;;;;;;;;;10557750;27;20215;-72
2021/03/15 08:41:27;;;;;;;3.67;1.70;;;;;;;;;;10560181;28;20207;-73
2021/03/15 08:46:34;;;;;;;4.03;2.00;;;;;;;;;;10564449;27;20660;-73
2021/03/15 08:51:47;;;;;;;4.07;1.60;;;;;;;;;;10572033;27;20563;-72
2021/03/15 08:56:49;;;;;;;1.73;1.20;;;;;;;;;;10566374;27;20223;-72
2021/03/15 09:01:53;;;;;;;2.10;1.17;;;;;;;;;;10566237;27;20211;-73
2021/03/15 09:06:55;;;;;;;1.33;1.00;;;;;;;;;;10572459;27;20183;-73
2021/03/15 09:12:01;;;;;;;2.00;1.10;;;;;;;;;;10594771;27;20218;-72
2021/03/15 09:17:21;;;;;;;2.40;1.50;;;;;;;;;;10574086;27;20570;-73
2021/03/15 09:22:25;;;;;;;4.73;1.50;;;;;;;;;;10568474;27;20566;-73
2021/03/15 09:27:32;;;;;;;0.87;0.87;;;;;;;;;;10578095;27;20190;-72
2021/03/15 09:32:34;;;;;;;2.07;1.30;;;;;;;;;;10571048;27;20316;-71
2021/03/15 09:37:39;;;;;;;1.00;0.90;;;;;;;;;;10572305;28;20800;-72
2021/03/15 09:42:41;;;;;;;1.00;0.60;;;;;;;;;;10556932;28;20313;-73
2021/03/15 09:47:43;;;;;;;1.50;1.00;;;;;;;;;;10567308;27;20255;-74
2021/03/15 09:52:46;;;;;;;3.37;1.40;;;;;;;;;;10582570;27;20214;-73
2021/03/15 09:57:47;;;;;;;1.30;0.70;;;;;;;;;;10581917;27;20282;-73
2021/03/15 10:02:49;;;;;;;1.03;0.87;;;;;;;;;;10585770;27;20225;-72
2021/03/15 10:07:52;;;;;;;1.53;0.70;;;;;;;;;;10583705;27;20186;-73
2021/03/15 10:13:00;;;;;;;1.00;0.80;;;;;;;;;;10597088;27;20283;-72
2021/03/15 10:18:02;;;;;;;1.33;0.83;;;;;;;;;;10584690;27;20239;-73
2021/03/15 10:23:12;;;;;;;2.07;0.70;;;;;;;;;;10555213;27;20529;-72
2021/03/15 10:28:14;;;;;;;1.73;0.90;;;;;;;;;;10569990;27;20747;-72
2021/03/15 10:33:17;;;;;;;1.87;0.60;;;;;;;;;;10576999;27;20308;-72
2021/03/15 10:38:20;;;;;;;2.37;0.87;;;;;;;;;;10573657;27;20660;-71
2021/03/15 10:43:23;;;;;;;1.30;0.80;;;;;;;;;;10572039;27;20265;-72
2021/03/15 10:48:25;;;;;;;1.20;0.90;;;;;;;;;;10579803;27;20256;-72
2021/03/15 10:53:29;;;;;;;1.53;0.90;;;;;;;;;;10575011;27;20248;-71
2021/03/15 10:58:37;;;;;;;1.03;0.77;;;;;;;;;;10576592;27;20270;-72
2021/03/15 11:03:40;;;;;;;1.73;0.87;;;;;;;;;;10576491;27;20600;-72
2021/03/15 11:08:52;;;;;;;3.50;1.13;;;;;;;;;;10570909;27;20221;-71
2021/03/15 11:13:54;;;;;;;0.87;0.80;;;;;;;;;;10583919;27;20245;-72
2021/03/15 11:19:07;;;;;;;1.67;0.90;;;;;;;;;;10572608;27;20613;-73
2021/03/15 11:24:10;;;;;;;0.63;0.50;;;;;;;;;;10573403;28;20282;-71
2021/03/15 11:29:12;;;;;;;1.17;0.47;;;;;;;;;;10584920;27;20195;-73
2021/03/15 11:34:16;;;;;;;1.30;0.70;;;;;;;;;;10577655;27;20267;-71
2021/03/15 11:39:19;;;;;;;0.60;0.50;;;;;;;;;;10582643;27;20338;-72
2021/03/15 11:44:20;;;;;;;0.70;0.50;;;;;;;;;;10581599;28;20688;-72
2021/03/15 11:49:22;;;;;;;0.60;0.57;;;;;;;;;;10581880;27;20670;-72
2021/03/15 11:54:25;;;;;;;0.60;0.40;;;;;;;;;;10573217;27;20325;-72
2021/03/15 11:59:26;;;;;;;1.63;0.80;;;;;;;;;;10570767;27;20239;-70
2021/03/15 12:04:29;;;;;;;0.60;0.60;;;;;;;;;;10591217;27;20194;-71
2021/03/15 12:09:32;;;;;;;1.60;0.50;;;;;;;;;;10565041;28;20219;-71
2021/03/15 12:14:39;;;;;;;1.60;1.00;;;;;;;;;;10582130;27;20283;-72
2021/03/15 12:19:40;;;;;;;0.53;0.50;;;;;;;;;;10552747;27;20215;-71
2021/03/15 12:24:43;;;;;;;1.27;0.80;;;;;;;;;;10573669;27;20255;-72
2021/03/15 12:29:46;;;;;;;1.70;0.70;;;;;;;;;;10574651;27;20293;-72
2021/03/15 12:34:47;;;;;;;1.70;0.80;;;;;;;;;;10562089;27;20716;-72
2021/03/15 12:39:50;;;;;;;1.27;0.80;;;;;;;;;;10570139;27;20214;-72
2021/03/15 12:44:51;;;;;;;2.27;1.10;;;;;;;;;;10564282;27;20188;-72
2021/03/15 12:49:53;;;;;;;0.43;0.37;;;;;;;;;;10574444;27;20241;-72
2021/03/15 12:54:55;;;;;;;1.80;1.10;;;;;;;;;;10584393;27;20602;-72
2021/03/15 12:59:57;;;;;;;1.13;0.90;;;;;;;;;;10592652;27;20222;-72
2021/03/15 13:04:59;;;;;;;1.30;0.80;;;;;;;;;;10562866;27;23549;-72
2021/03/15 13:10:01;;;;;;;1.37;0.83;;;;;;;;;;10566463;27;20307;-73
2021/03/15 13:15:04;;;;;;;1.63;1.07;;;;;;;;;;10531977;28;20298;-71
2021/03/15 13:20:06;;;;;;;1.33;0.90;;;;;;;;;;10560195;27;20211;-71
2021/03/15 13:25:09;;;;;;;0.70;0.60;;;;;;;;;;10569984;27;20187;-72
2021/03/15 13:30:11;;;;;;;1.00;0.83;;;;;;;;;;10548606;27;20779;-72
2021/03/15 13:35:14;;;;;;;1.77;1.00;;;;;;;;;;10571130;27;20685;-73
2021/03/15 13:40:18;;;;;;;2.87;1.20;;;;;;;;;;10558577;27;20225;-73
2021/03/15 13:45:19;;;;;;;3.00;1.40;;;;;;;;;;10578366;28;20241;-76
2021/03/15 13:50:21;;;;;;;0.70;0.70;;;;;;;;;;10566102;28;20615;-72
2021/03/15 13:55:24;;;;;;;1.67;1.10;;;;;;;;;;10570763;28;20302;-72
2021/03/15 14:00:26;;;;;;;1.10;0.93;;;;;;;;;;10561781;28;20374;-71
2021/03/15 14:05:27;;;;;;;1.50;0.50;;;;;;;;;;10539550;28;20221;-72
2021/03/15 14:10:30;;;;;;;1.57;0.90;;;;;;;;;;10561496;28;20354;-73
2021/03/15 14:15:31;;;;;;;1.57;1.10;;;;;;;;;;10561578;28;20718;-72
2021/03/15 14:20:33;;;;;;;1.27;0.93;;;;;;;;;;10552231;28;20215;-73
2021/03/15 14:25:36;;;;;;;0.60;0.60;;;;;;;;;;10553916;28;20202;-71
2021/03/15 14:30:37;;;;;;;1.20;1.00;;;;;;;;;;10543711;28;20239;-73
2021/03/15 14:35:39;;;;;;;1.13;0.67;;;;;;;;;;10557848;28;20214;-72
2021/03/15 14:40:41;;;;;;;1.17;0.80;;;;;;;;;;10566319;27;20533;-72
2021/03/15 14:45:49;;;;;;;0.97;0.60;;;;;;;;;;10567881;28;20199;-71
2021/03/15 14:50:51;;;;;;;2.33;1.30;;;;;;;;;;10541744;27;20333;-72
2021/03/15 14:55:54;;;;;;;2.30;1.33;;;;;;;;;;10568959;27;20552;-71
2021/03/15 15:00:56;;;;;;;2.60;1.30;;;;;;;;;;10558904;28;20394;-71
2021/03/15 15:05:58;;;;;;;0.57;0.57;;;;;;;;;;10573699;27;20222;-72
2021/03/15 15:11:00;;;;;;;1.77;1.07;;;;;;;;;;10577020;27;20238;-72
2021/03/15 15:16:02;;;;;;;1.47;0.80;;;;;;;;;;10540324;27;20210;-71
2021/03/15 15:21:04;;;;;;;1.07;0.90;;;;;;;;;;10574075;27;20241;-73
2021/03/15 15:26:06;;;;;;;1.27;1.13;;;;;;;;;;10573528;27;20660;-73
2021/03/15 15:31:08;;;;;;;2.33;1.10;;;;;;;;;;10559079;27;20219;-72
2021/03/15 15:36:10;;;;;;;2.37;1.40;;;;;;;;;;10568715;27;20211;-73
2021/03/15 15:41:30;;;;;;;1.50;1.10;;;;;;;;;;10570086;27;20620;-74
2021/03/15 15:46:32;;;;;;;1.73;1.20;;;;;;;;;;10525333;28;20202;-71
2021/03/15 15:51:34;;;;;;;2.57;1.47;;;;;;;;;;10514564;28;20732;-72
2021/03/15 15:56:36;;;;;;;2.20;1.30;;;;;;;;;;10538678;28;20279;-73
2021/03/15 16:01:38;;;;;;;2.57;1.63;;;;;;;;;;10530087;28;20240;-72
2021/03/15 16:06:41;;;;;;;2.30;1.33;;;;;;;;;;10527036;28;20184;-72
2021/03/15 16:11:43;;;;;;;2.80;1.57;;;;;;;;;;10537502;28;20216;-72
2021/03/15 16:16:45;;;;;;;2.77;1.60;;;;;;;;;;10519392;28;20296;-72
2021/03/15 16:21:46;;;;;;;2.63;1.43;;;;;;;;;;10530562;28;20249;-71
2021/03/15 16:26:49;;;;;;;3.50;1.90;;;;;;;;;;10521094;28;20191;-72
2021/03/15 16:31:50;;;;;;;2.57;1.53;;;;;;;;;;10525220;28;20211;-72
2021/03/15 16:36:52;;;;;;;5.90;2.17;;;;;;;;;;10524492;28;20242;-72
2021/03/15 16:41:55;;;;;;;4.13;2.20;;;;;;;;;;10525849;28;20227;-72
2021/03/15 16:46:56;;;;;;;4.03;2.00;;;;;;;;;;10563015;27;20277;-72
2021/03/15 16:52:07;;;;;;;4.37;2.33;;;;;;;;;;10570178;27;20724;-72
2021/03/15 16:57:09;;;;;;;4.53;2.40;;;;;;;;;;10571885;27;20217;-72
2021/03/15 17:02:11;;;;;;;3.90;1.90;;;;;;;;;;10572152;27;20288;-73
2021/03/15 17:07:13;;;;;;;3.60;2.00;;;;;;;;;;10572862;27;20636;-72
2021/03/15 17:12:15;;;;;;;6.23;2.30;;;;;;;;;;10563351;27;20250;-73
2021/03/15 17:17:17;;;;;;;5.87;3.30;;;;;;;;;;10548789;28;20660;-72
2021/03/15 17:22:38;;;;;;;5.30;2.83;;;;;;;;;;10572579;27;20213;-72
2021/03/15 17:27:41;;;;;;;9.03;3.50;;;;;;;;;;10574666;27;20639;-72
2021/03/15 17:32:42;;;;;;;6.70;3.53;;;;;;;;;;10560042;28;20299;-73
2021/03/15 17:37:44;;;;;;;7.33;3.70;;;;;;;;;;10549828;28;20321;-72
2021/03/15 17:42:48;;;;;;;8.03;3.50;;;;;;;;;;10557263;28;20306;-72
2021/03/15 17:47:50;;;;;;;9.83;3.80;;;;;;;;;;10585136;28;20299;-71
2021/03/15 17:52:53;;;;;;;5.30;2.57;;;;;;;;;;10576872;28;20222;-71
2021/03/15 17:57:55;;;;;;;6.50;2.73;;;;;;;;;;10594442;28;20203;-72
2021/03/15 18:02:57;;;;;;;3.87;2.17;;;;;;;;;;10590041;28;20656;-72
2021/03/15 18:07:59;;;;;;;7.13;3.37;;;;;;;;;;10590950;27;20193;-72
2021/03/15 18:13:02;;;;;;;6.27;3.37;;;;;;;;;;10580449;27;20215;-74
2021/03/15 18:18:14;;;;;;;6.50;3.30;;;;;;;;;;10563544;27;20230;-72
2021/03/15 18:23:18;;;;;;;7.27;3.97;;;;;;;;;;10555905;27;20215;-72
2021/03/15 18:28:20;;;;;;;6.43;3.40;;;;;;;;;;10578796;27;20664;-72
2021/03/15 18:33:23;;;;;;;7.30;3.60;;;;;;;;;;10573171;27;20465;-73
2021/03/15 18:38:25;;;;;;;7.43;3.80;;;;;;;;;;10576729;27;20296;-72
2021/03/15 18:43:29;;;;;;;6.53;3.20;;;;;;;;;;10569157;27;20345;-72
2021/03/15 18:48:31;;;;;;;6.80;3.03;;;;;;;;;;10569521;27;20277;-73
2021/03/15 18:53:38;;;;;;;7.60;2.63;;;;;;;;;;10571860;27;20300;-72
2021/03/15 18:58:41;;;;;;;4.67;2.53;;;;;;;;;;10554912;27;20203;-72
2021/03/15 19:03:43;;;;;;;5.70;2.90;;;;;;;;;;10578868;27;20259;-72
2021/03/15 19:08:45;;;;;;;5.33;2.70;;;;;;;;;;10574879;27;20190;-73
2021/03/15 19:13:47;;;;;;;8.83;2.50;;;;;;;;;;10567803;27;20222;-72
2021/03/15 19:18:49;;;;;;;5.57;2.67;;;;;;;;;;10552519;27;20351;-74
2021/03/15 19:23:59;;;;;;;6.80;3.30;;;;;;;;;;10563914;27;20291;-72
2021/03/15 19:29:01;;;;;;;8.33;3.13;;;;;;;;;;10575841;27;20195;-72
2021/03/15 19:34:03;;;;;;;7.47;3.30;;;;;;;;;;10573398;27;20187;-74
2021/03/15 19:39:04;;;;;;;7.27;2.90;;;;;;;;;;10570101;27;20183;-73
2021/03/15 19:44:07;;;;;;;6.77;2.80;;;;;;;;;;10533221;28;20228;-72
2021/03/15 19:49:09;;;;;;;6.53;3.40;;;;;;;;;;10578923;27;20566;-75
2021/03/15 19:54:22;;;;;;;5.30;2.43;;;;;;;;;;10565215;27;20377;-73
2021/03/15 19:59:24;;;;;;;8.93;4.03;;;;;;;;;;10576736;27;20271;-71
2021/03/15 20:04:26;;;;;;;5.97;3.40;;;;;;;;;;10554671;27;20654;-73
2021/03/15 20:09:29;;;;;;;7.50;3.80;;;;;;;;;;10545131;28;20214;-73
2021/03/15 20:14:31;;;;;;;7.60;3.40;;;;;;;;;;10542564;28;20631;-71
2021/03/15 20:19:33;;;;;;;9.87;4.67;;;;;;;;;;10545461;28;20222;-72
2021/03/15 20:24:44;;;;;;;8.10;4.10;;;;;;;;;;10539210;28;20193;-72
2021/03/15 20:29:46;;;;;;;8.67;3.87;;;;;;;;;;10540004;28;20250;-71
2021/03/15 20:34:49;;;;;;;8.93;4.70;;;;;;;;;;10537333;28;20519;-72
2021/03/15 20:39:50;;;;;;;8.00;3.80;;;;;;;;;;10543997;28;20215;-71
2021/03/15 20:44:53;;;;;;;10.57;5.23;;;;;;;;;;10555526;27;20225;-73
2021/03/15 20:49:55;;;;;;;10.03;4.93;;;;;;;;;;10568710;27;20215;-73
2021/03/15 20:55:12;;;;;;;10.27;4.70;;;;;;;;;;10565557;27;20250;-73
2021/03/15 21:00:16;;;;;;;10.10;5.60;;;;;;;;;;10561540;28;20212;-74
2021/03/15 21:05:18;;;;;;;11.13;5.17;;;;;;;;;;10567031;27;20594;-72
2021/03/15 21:10:21;;;;;;;9.83;5.63;;;;;;;;;;10563215;28;20276;-73
2021/03/15 21:15:24;;;;;;;6.63;3.23;;;;;;;;;;10554202;27;20207;-74
2021/03/15 21:20:27;;;;;;;8.73;4.17;;;;;;;;;;10555269;27;20259;-72
2021/03/15 21:25:30;;;;;;;11.07;4.83;;;;;;;;;;10568648;27;20198;-72
2021/03/15 21:30:34;;;;;;;9.50;4.77;;;;;;;;;;10567494;27;20274;-74
2021/03/15 21:35:37;;;;;;;9.03;4.60;;;;;;;;;;10567667;28;20214;-73
2021/03/15 21:40:39;;;;;;;9.83;5.27;;;;;;;;;;10551404;28;20287;-73
2021/03/15 21:45:42;;;;;;;7.63;3.93;;;;;;;;;;10564314;28;20574;-73
2021/03/15 21:50:43;;;;;;;9.43;4.60;;;;;;;;;;10559658;28;20295;-72
2021/03/15 21:55:54;;;;;;;8.30;3.80;;;;;;;;;;10564894;28;20221;-73
2021/03/15 22:00:58;;;;;;;9.93;4.90;;;;;;;;;;10567975;28;20210;-72
2021/03/15 22:06:00;;;;;;;5.63;3.07;;;;;;;;;;10564510;28;20573;-74
2021/03/15 22:11:01;;;;;;;12.50;6.87;;;;;;;;;;10549160;28;20210;-74
2021/03/15 22:16:04;;;;;;;11.57;6.47;;;;;;;;;;10570373;28;20255;-73
2021/03/15 22:21:06;;;;;;;11.10;5.93;;;;;;;;;;10557499;28;20211;-72
2021/03/15 22:26:19;;;;;;;11.50;6.80;;;;;;;;;;10555417;28;20274;-73
2021/03/15 22:31:21;;;;;;;11.73;6.30;;;;;;;;;;10553701;28;21216;-73
2021/03/15 22:36:23;;;;;;;11.83;6.30;;;;;;;;;;10565032;28;20207;-72
2021/03/15 22:41:24;;;;;;;13.03;6.70;;;;;;;;;;10560248;28;20215;-72
2021/03/15 22:46:27;;;;;;;10.73;5.50;;;;;;;;;;10554951;28;20203;-73
2021/03/15 22:51:29;;;;;;;9.47;4.73;;;;;;;;;;10552216;28;20237;-73
2021/03/15 22:56:40;;;;;;;8.67;4.07;;;;;;;;;;10574603;27;20281;-72
2021/03/15 23:01:42;;;;;;;11.60;6.10;;;;;;;;;;10565488;27;20219;-72
2021/03/15 23:06:45;;;;;;;8.77;4.17;;;;;;;;;;10581812;27;20647;-73
2021/03/15 23:11:48;;;;;;;9.63;5.27;;;;;;;;;;10566222;27;20284;-74
2021/03/15 23:16:50;;;;;;;10.37;4.73;;;;;;;;;;10573535;27;20251;-73
2021/03/15 23:21:52;;;;;;;10.07;5.40;;;;;;;;;;10585237;27;20249;-74
2021/03/15 23:27:09;;;;;;;8.83;4.47;;;;;;;;;;10544635;27;20206;-73
2021/03/15 23:32:12;;;;;;;9.00;4.13;;;;;;;;;;10573341;27;20233;-73
2021/03/15 23:37:14;;;;;;;11.33;5.73;;;;;;;;;;10581172;27;20233;-71
2021/03/15 23:42:16;;;;;;;9.13;4.50;;;;;;;;;;10562903;27;20306;-73
2021/03/15 23:47:20;;;;;;;10.83;5.03;;;;;;;;;;10579827;27;20645;-73
2021/03/15 23:52:22;;;;;;;12.10;6.50;;;;;;;;;;10580291;27;20262;-73
2021/03/15 23:57:25;;;;;;;10.27;5.43;;;;;;;;;;10580016;27;20221;-72
